sensor_id;sensor_type;location;lat;lon;timestamp;P1;durP1;ratioP1;P2;durP2;ratioP2
26181;SDS011;13927;51.534;11.866;2023-05-07T00:00:00;20.00;;;13.98;;
26181;SDS011;13927;51.534;11.866;2023-05-07T00:02:27;19.70;;;14.73;;
26181;SDS011;13927;51.534;11.866;2023-05-07T00:04:54;18.08;;;14.18;;
26181;SDS011;13927;51.534;11.866;2023-05-07T00:07:20;19.15;;;14.95;;
26181;SDS011;13927;51.534;11.866;2023-05-07T00:09:46;19.55;;;14.98;;
26181;SDS011;13927;51.534;11.866;2023-05-07T00:12:11;19.05;;;14.57;;
26181;SDS011;13927;51.534;11.866;2023-05-07T00:14:37;18.67;;;14.75;;
26181;SDS011;13927;51.534;11.866;2023-05-07T00:17:03;19.05;;;14.13;;
26181;SDS011;13927;51.534;11.866;2023-05-07T00:19:28;18.75;;;14.32;;
26181;SDS011;13927;51.534;11.866;2023-05-07T00:21:54;20.60;;;14.35;;
26181;SDS011;13927;51.534;11.866;2023-05-07T00:24:20;21.70;;;15.07;;
26181;SDS011;13927;51.534;11.866;2023-05-07T00:26:46;20.65;;;15.20;;
26181;SDS011;13927;51.534;11.866;2023-05-07T00:29:12;20.88;;;14.25;;
26181;SDS011;13927;51.534;11.866;2023-05-07T00:31:38;21.73;;;14.90;;
26181;SDS011;13927;51.534;11.866;2023-05-07T00:34:03;18.40;;;14.18;;
26181;SDS011;13927;51.534;11.866;2023-05-07T00:36:29;20.95;;;14.48;;
26181;SDS011;13927;51.534;11.866;2023-05-07T00:38:56;20.17;;;14.20;;
26181;SDS011;13927;51.534;11.866;2023-05-07T00:41:24;18.67;;;13.65;;
26181;SDS011;13927;51.534;11.866;2023-05-07T00:43:50;19.58;;;13.80;;
26181;SDS011;13927;51.534;11.866;2023-05-07T00:46:16;20.65;;;15.00;;
26181;SDS011;13927;51.534;11.866;2023-05-07T00:48:47;19.35;;;14.65;;
26181;SDS011;13927;51.534;11.866;2023-05-07T00:51:14;19.77;;;14.75;;
26181;SDS011;13927;51.534;11.866;2023-05-07T00:53:41;17.63;;;13.18;;
26181;SDS011;13927;51.534;11.866;2023-05-07T00:56:07;20.65;;;14.60;;
26181;SDS011;13927;51.534;11.866;2023-05-07T00:58:33;20.63;;;15.15;;
26181;SDS011;13927;51.534;11.866;2023-05-07T01:00:59;18.30;;;13.75;;
26181;SDS011;13927;51.534;11.866;2023-05-07T01:03:25;19.25;;;14.75;;
26181;SDS011;13927;51.534;11.866;2023-05-07T01:05:51;17.75;;;13.90;;
26181;SDS011;13927;51.534;11.866;2023-05-07T01:08:18;17.30;;;13.27;;
26181;SDS011;13927;51.534;11.866;2023-05-07T01:10:43;19.40;;;14.27;;
26181;SDS011;13927;51.534;11.866;2023-05-07T01:13:10;18.20;;;12.55;;
26181;SDS011;13927;51.534;11.866;2023-05-07T01:15:38;15.40;;;12.95;;
26181;SDS011;13927;51.534;11.866;2023-05-07T01:18:06;16.65;;;13.07;;
26181;SDS011;13927;51.534;11.866;2023-05-07T01:20:32;16.10;;;12.90;;
26181;SDS011;13927;51.534;11.866;2023-05-07T01:22:58;16.10;;;12.55;;
26181;SDS011;13927;51.534;11.866;2023-05-07T01:25:25;18.95;;;13.82;;
26181;SDS011;13927;51.534;11.866;2023-05-07T01:27:52;15.20;;;12.98;;
26181;SDS011;13927;51.534;11.866;2023-05-07T01:30:17;17.85;;;13.85;;
26181;SDS011;13927;51.534;11.866;2023-05-07T01:32:52;17.13;;;13.30;;
26181;SDS011;13927;51.534;11.866;2023-05-07T01:35:26;19.73;;;15.45;;
26181;SDS011;13927;51.534;11.866;2023-05-07T01:37:57;22.50;;;15.93;;
26181;SDS011;13927;51.534;11.866;2023-05-07T01:40:24;20.27;;;15.40;;
26181;SDS011;13927;51.534;11.866;2023-05-07T01:42:50;23.60;;;16.30;;
26181;SDS011;13927;51.534;11.866;2023-05-07T01:45:17;23.23;;;17.67;;
26181;SDS011;13927;51.534;11.866;2023-05-07T01:47:42;23.35;;;16.38;;
26181;SDS011;13927;51.534;11.866;2023-05-07T01:50:09;20.13;;;15.90;;
26181;SDS011;13927;51.534;11.866;2023-05-07T01:52:36;21.48;;;16.85;;
26181;SDS011;13927;51.534;11.866;2023-05-07T01:55:03;19.52;;;15.75;;
26181;SDS011;13927;51.534;11.866;2023-05-07T01:57:30;19.98;;;15.07;;
26181;SDS011;13927;51.534;11.866;2023-05-07T01:59:56;19.08;;;14.65;;
26181;SDS011;13927;51.534;11.866;2023-05-07T02:02:22;19.55;;;14.80;;
26181;SDS011;13927;51.534;11.866;2023-05-07T02:04:47;15.70;;;12.60;;
26181;SDS011;13927;51.534;11.866;2023-05-07T02:07:13;15.70;;;13.43;;
26181;SDS011;13927;51.534;11.866;2023-05-07T02:09:39;19.20;;;14.38;;
26181;SDS011;13927;51.534;11.866;2023-05-07T02:12:05;18.13;;;13.18;;
26181;SDS011;13927;51.534;11.866;2023-05-07T02:14:30;19.10;;;13.98;;
26181;SDS011;13927;51.534;11.866;2023-05-07T02:16:56;17.85;;;13.43;;
26181;SDS011;13927;51.534;11.866;2023-05-07T02:19:22;14.30;;;11.93;;
26181;SDS011;13927;51.534;11.866;2023-05-07T02:21:47;16.20;;;13.32;;
26181;SDS011;13927;51.534;11.866;2023-05-07T02:24:13;15.93;;;12.90;;
26181;SDS011;13927;51.534;11.866;2023-05-07T02:26:40;15.88;;;13.55;;
26181;SDS011;13927;51.534;11.866;2023-05-07T02:29:06;13.50;;;11.77;;
26181;SDS011;13927;51.534;11.866;2023-05-07T02:31:32;16.77;;;12.90;;
26181;SDS011;13927;51.534;11.866;2023-05-07T02:33:58;17.95;;;12.68;;
26181;SDS011;13927;51.534;11.866;2023-05-07T02:36:25;15.02;;;12.32;;
26181;SDS011;13927;51.534;11.866;2023-05-07T02:38:51;14.05;;;11.73;;
26181;SDS011;13927;51.534;11.866;2023-05-07T02:41:17;14.20;;;11.65;;
26181;SDS011;13927;51.534;11.866;2023-05-07T02:43:43;13.88;;;11.25;;
26181;SDS011;13927;51.534;11.866;2023-05-07T02:46:09;14.82;;;11.60;;
26181;SDS011;13927;51.534;11.866;2023-05-07T02:48:35;14.43;;;11.32;;
26181;SDS011;13927;51.534;11.866;2023-05-07T02:51:01;14.52;;;11.38;;
26181;SDS011;13927;51.534;11.866;2023-05-07T02:53:28;11.95;;;10.02;;
26181;SDS011;13927;51.534;11.866;2023-05-07T02:55:57;13.90;;;11.27;;
26181;SDS011;13927;51.534;11.866;2023-05-07T02:58:24;12.68;;;11.10;;
26181;SDS011;13927;51.534;11.866;2023-05-07T03:00:51;13.38;;;10.65;;
26181;SDS011;13927;51.534;11.866;2023-05-07T03:03:17;13.52;;;10.30;;
26181;SDS011;13927;51.534;11.866;2023-05-07T03:05:43;12.18;;;10.88;;
26181;SDS011;13927;51.534;11.866;2023-05-07T03:08:09;13.50;;;10.70;;
26181;SDS011;13927;51.534;11.866;2023-05-07T03:10:35;11.63;;;10.43;;
26181;SDS011;13927;51.534;11.866;2023-05-07T03:13:01;12.57;;;10.27;;
26181;SDS011;13927;51.534;11.866;2023-05-07T03:15:27;13.30;;;10.50;;
26181;SDS011;13927;51.534;11.866;2023-05-07T03:17:53;13.50;;;11.05;;
26181;SDS011;13927;51.534;11.866;2023-05-07T03:20:19;14.90;;;10.95;;
26181;SDS011;13927;51.534;11.866;2023-05-07T03:22:45;12.13;;;10.60;;
26181;SDS011;13927;51.534;11.866;2023-05-07T03:25:10;13.15;;;10.90;;
26181;SDS011;13927;51.534;11.866;2023-05-07T03:27:36;12.63;;;11.32;;
26181;SDS011;13927;51.534;11.866;2023-05-07T03:30:03;14.57;;;11.10;;
26181;SDS011;13927;51.534;11.866;2023-05-07T03:32:29;12.88;;;10.90;;
26181;SDS011;13927;51.534;11.866;2023-05-07T03:34:55;14.02;;;11.00;;
26181;SDS011;13927;51.534;11.866;2023-05-07T03:37:20;11.65;;;10.43;;
26181;SDS011;13927;51.534;11.866;2023-05-07T03:39:46;12.73;;;11.05;;
26181;SDS011;13927;51.534;11.866;2023-05-07T03:42:12;13.60;;;11.07;;
26181;SDS011;13927;51.534;11.866;2023-05-07T03:44:38;14.60;;;12.73;;
26181;SDS011;13927;51.534;11.866;2023-05-07T03:47:04;16.38;;;13.02;;
26181;SDS011;13927;51.534;11.866;2023-05-07T03:49:29;16.25;;;14.00;;
26181;SDS011;13927;51.534;11.866;2023-05-07T03:51:55;15.00;;;13.38;;
26181;SDS011;13927;51.534;11.866;2023-05-07T03:54:21;14.73;;;12.88;;
26181;SDS011;13927;51.534;11.866;2023-05-07T03:56:47;15.50;;;13.00;;
26181;SDS011;13927;51.534;11.866;2023-05-07T03:59:13;17.42;;;13.90;;
26181;SDS011;13927;51.534;11.866;2023-05-07T04:01:39;17.55;;;14.73;;
26181;SDS011;13927;51.534;11.866;2023-05-07T04:04:04;16.85;;;14.20;;
26181;SDS011;13927;51.534;11.866;2023-05-07T04:06:30;18.35;;;15.13;;
26181;SDS011;13927;51.534;11.866;2023-05-07T04:08:56;17.00;;;14.95;;
26181;SDS011;13927;51.534;11.866;2023-05-07T04:11:22;15.45;;;13.77;;
26181;SDS011;13927;51.534;11.866;2023-05-07T04:13:48;21.35;;;16.13;;
26181;SDS011;13927;51.534;11.866;2023-05-07T04:16:14;16.02;;;13.98;;
26181;SDS011;13927;51.534;11.866;2023-05-07T04:18:40;19.02;;;15.02;;
26181;SDS011;13927;51.534;11.866;2023-05-07T04:21:13;17.20;;;15.00;;
26181;SDS011;13927;51.534;11.866;2023-05-07T04:23:40;16.02;;;14.20;;
26181;SDS011;13927;51.534;11.866;2023-05-07T04:26:06;18.52;;;15.13;;
26181;SDS011;13927;51.534;11.866;2023-05-07T04:28:32;17.38;;;15.20;;
26181;SDS011;13927;51.534;11.866;2023-05-07T04:30:57;18.63;;;15.73;;
26181;SDS011;13927;51.534;11.866;2023-05-07T04:33:23;18.05;;;15.55;;
26181;SDS011;13927;51.534;11.866;2023-05-07T04:35:49;17.67;;;15.38;;
26181;SDS011;13927;51.534;11.866;2023-05-07T04:38:15;16.83;;;15.02;;
26181;SDS011;13927;51.534;11.866;2023-05-07T04:40:41;18.80;;;15.82;;
26181;SDS011;13927;51.534;11.866;2023-05-07T04:43:07;18.40;;;15.07;;
26181;SDS011;13927;51.534;11.866;2023-05-07T04:45:34;19.38;;;15.38;;
26181;SDS011;13927;51.534;11.866;2023-05-07T04:48:00;19.20;;;16.25;;
26181;SDS011;13927;51.534;11.866;2023-05-07T04:50:26;19.55;;;15.80;;
26181;SDS011;13927;51.534;11.866;2023-05-07T04:52:52;18.45;;;15.45;;
26181;SDS011;13927;51.534;11.866;2023-05-07T04:55:18;18.20;;;15.57;;
26181;SDS011;13927;51.534;11.866;2023-05-07T04:57:43;19.70;;;17.02;;
26181;SDS011;13927;51.534;11.866;2023-05-07T05:00:10;19.70;;;16.02;;
26181;SDS011;13927;51.534;11.866;2023-05-07T05:02:39;18.58;;;16.55;;
26181;SDS011;13927;51.534;11.866;2023-05-07T05:05:06;18.95;;;15.80;;
26181;SDS011;13927;51.534;11.866;2023-05-07T05:07:32;20.30;;;16.92;;
26181;SDS011;13927;51.534;11.866;2023-05-07T05:09:58;19.38;;;16.27;;
26181;SDS011;13927;51.534;11.866;2023-05-07T05:12:24;19.65;;;16.27;;
26181;SDS011;13927;51.534;11.866;2023-05-07T05:14:50;18.38;;;15.30;;
26181;SDS011;13927;51.534;11.866;2023-05-07T05:17:16;21.00;;;16.02;;
26181;SDS011;13927;51.534;11.866;2023-05-07T05:19:41;19.60;;;16.45;;
26181;SDS011;13927;51.534;11.866;2023-05-07T05:22:07;24.08;;;15.73;;
26181;SDS011;13927;51.534;11.866;2023-05-07T05:24:33;18.98;;;15.98;;
26181;SDS011;13927;51.534;11.866;2023-05-07T05:26:58;18.25;;;15.43;;
26181;SDS011;13927;51.534;11.866;2023-05-07T05:29:26;17.90;;;15.70;;
26181;SDS011;13927;51.534;11.866;2023-05-07T05:31:51;19.70;;;16.08;;
26181;SDS011;13927;51.534;11.866;2023-05-07T05:34:17;18.27;;;15.90;;
26181;SDS011;13927;51.534;11.866;2023-05-07T05:36:44;19.13;;;15.40;;
26181;SDS011;13927;51.534;11.866;2023-05-07T05:39:10;19.48;;;15.52;;
26181;SDS011;13927;51.534;11.866;2023-05-07T05:41:36;18.67;;;15.73;;
26181;SDS011;13927;51.534;11.866;2023-05-07T05:44:02;19.45;;;15.30;;
26181;SDS011;13927;51.534;11.866;2023-05-07T05:46:27;18.70;;;15.32;;
26181;SDS011;13927;51.534;11.866;2023-05-07T05:48:53;16.88;;;14.35;;
26181;SDS011;13927;51.534;11.866;2023-05-07T05:51:20;17.60;;;14.52;;
26181;SDS011;13927;51.534;11.866;2023-05-07T05:53:46;17.13;;;14.45;;
26181;SDS011;13927;51.534;11.866;2023-05-07T05:56:12;16.60;;;13.85;;
26181;SDS011;13927;51.534;11.866;2023-05-07T05:58:37;20.23;;;15.75;;
26181;SDS011;13927;51.534;11.866;2023-05-07T06:01:03;18.42;;;13.80;;
26181;SDS011;13927;51.534;11.866;2023-05-07T06:03:30;19.83;;;13.98;;
26181;SDS011;13927;51.534;11.866;2023-05-07T06:05:57;17.17;;;14.35;;
26181;SDS011;13927;51.534;11.866;2023-05-07T06:08:23;16.00;;;14.30;;
26181;SDS011;13927;51.534;11.866;2023-05-07T06:10:49;15.32;;;12.82;;
26181;SDS011;13927;51.534;11.866;2023-05-07T06:13:15;14.88;;;13.30;;
26181;SDS011;13927;51.534;11.866;2023-05-07T06:15:40;14.98;;;12.57;;
26181;SDS011;13927;51.534;11.866;2023-05-07T06:18:06;18.27;;;12.75;;
26181;SDS011;13927;51.534;11.866;2023-05-07T06:20:32;14.65;;;11.90;;
26181;SDS011;13927;51.534;11.866;2023-05-07T06:22:58;13.10;;;11.70;;
26181;SDS011;13927;51.534;11.866;2023-05-07T06:25:23;13.55;;;11.10;;
26181;SDS011;13927;51.534;11.866;2023-05-07T06:27:49;13.45;;;11.48;;
26181;SDS011;13927;51.534;11.866;2023-05-07T06:30:15;13.38;;;11.95;;
26181;SDS011;13927;51.534;11.866;2023-05-07T06:32:41;12.70;;;11.18;;
26181;SDS011;13927;51.534;11.866;2023-05-07T06:35:06;13.35;;;12.00;;
26181;SDS011;13927;51.534;11.866;2023-05-07T06:37:33;12.43;;;11.10;;
26181;SDS011;13927;51.534;11.866;2023-05-07T06:39:58;12.38;;;10.02;;
26181;SDS011;13927;51.534;11.866;2023-05-07T06:42:24;11.98;;;9.43;;
26181;SDS011;13927;51.534;11.866;2023-05-07T06:44:50;10.45;;;9.35;;
26181;SDS011;13927;51.534;11.866;2023-05-07T06:47:16;10.45;;;9.38;;
26181;SDS011;13927;51.534;11.866;2023-05-07T06:49:42;11.23;;;9.05;;
26181;SDS011;13927;51.534;11.866;2023-05-07T06:52:07;10.15;;;9.00;;
26181;SDS011;13927;51.534;11.866;2023-05-07T06:54:33;10.15;;;8.98;;
26181;SDS011;13927;51.534;11.866;2023-05-07T06:56:59;9.35;;;7.90;;
26181;SDS011;13927;51.534;11.866;2023-05-07T06:59:25;9.45;;;8.27;;
26181;SDS011;13927;51.534;11.866;2023-05-07T07:01:51;9.18;;;8.07;;
26181;SDS011;13927;51.534;11.866;2023-05-07T07:04:17;9.63;;;7.70;;
26181;SDS011;13927;51.534;11.866;2023-05-07T07:06:43;8.30;;;7.35;;
26181;SDS011;13927;51.534;11.866;2023-05-07T07:09:08;8.07;;;6.20;;
26181;SDS011;13927;51.534;11.866;2023-05-07T07:11:34;8.45;;;6.82;;
26181;SDS011;13927;51.534;11.866;2023-05-07T07:14:00;7.95;;;7.13;;
26181;SDS011;13927;51.534;11.866;2023-05-07T07:16:26;7.82;;;7.03;;
26181;SDS011;13927;51.534;11.866;2023-05-07T07:18:52;7.93;;;7.13;;
26181;SDS011;13927;51.534;11.866;2023-05-07T07:21:18;9.57;;;7.35;;
26181;SDS011;13927;51.534;11.866;2023-05-07T07:23:44;8.25;;;7.45;;
26181;SDS011;13927;51.534;11.866;2023-05-07T07:26:10;8.55;;;7.70;;
26181;SDS011;13927;51.534;11.866;2023-05-07T07:28:41;7.88;;;7.05;;
26181;SDS011;13927;51.534;11.866;2023-05-07T07:31:09;7.90;;;7.13;;
26181;SDS011;13927;51.534;11.866;2023-05-07T07:33:35;8.25;;;7.35;;
26181;SDS011;13927;51.534;11.866;2023-05-07T07:36:00;8.57;;;7.65;;
26181;SDS011;13927;51.534;11.866;2023-05-07T07:38:26;9.43;;;8.02;;
26181;SDS011;13927;51.534;11.866;2023-05-07T07:40:53;9.40;;;8.32;;
26181;SDS011;13927;51.534;11.866;2023-05-07T07:43:18;11.65;;;8.95;;
26181;SDS011;13927;51.534;11.866;2023-05-07T07:45:44;12.30;;;8.98;;
26181;SDS011;13927;51.534;11.866;2023-05-07T07:48:11;10.52;;;9.45;;
26181;SDS011;13927;51.534;11.866;2023-05-07T07:50:37;12.60;;;10.18;;
26181;SDS011;13927;51.534;11.866;2023-05-07T07:53:03;11.02;;;9.80;;
26181;SDS011;13927;51.534;11.866;2023-05-07T07:55:29;12.32;;;10.18;;
26181;SDS011;13927;51.534;11.866;2023-05-07T07:57:56;12.82;;;11.27;;
26181;SDS011;13927;51.534;11.866;2023-05-07T08:00:22;11.73;;;10.38;;
26181;SDS011;13927;51.534;11.866;2023-05-07T08:02:47;10.55;;;9.45;;
26181;SDS011;13927;51.534;11.866;2023-05-07T08:05:13;11.30;;;9.82;;
26181;SDS011;13927;51.534;11.866;2023-05-07T08:07:40;10.73;;;9.00;;
26181;SDS011;13927;51.534;11.866;2023-05-07T08:10:06;10.88;;;9.77;;
26181;SDS011;13927;51.534;11.866;2023-05-07T08:12:32;10.55;;;9.50;;
26181;SDS011;13927;51.534;11.866;2023-05-07T08:14:57;11.60;;;9.95;;
26181;SDS011;13927;51.534;11.866;2023-05-07T08:17:24;10.20;;;9.13;;
26181;SDS011;13927;51.534;11.866;2023-05-07T08:19:50;9.73;;;8.73;;
26181;SDS011;13927;51.534;11.866;2023-05-07T08:22:16;11.00;;;9.85;;
26181;SDS011;13927;51.534;11.866;2023-05-07T08:24:43;11.48;;;9.32;;
26181;SDS011;13927;51.534;11.866;2023-05-07T08:27:09;9.30;;;8.35;;
26181;SDS011;13927;51.534;11.866;2023-05-07T08:29:35;10.68;;;9.25;;
26181;SDS011;13927;51.534;11.866;2023-05-07T08:32:01;9.88;;;8.88;;
26181;SDS011;13927;51.534;11.866;2023-05-07T08:34:27;9.30;;;8.40;;
26181;SDS011;13927;51.534;11.866;2023-05-07T08:36:53;10.27;;;8.48;;
26181;SDS011;13927;51.534;11.866;2023-05-07T08:39:19;10.00;;;9.00;;
26181;SDS011;13927;51.534;11.866;2023-05-07T08:41:45;10.10;;;8.95;;
26181;SDS011;13927;51.534;11.866;2023-05-07T08:44:12;9.23;;;8.38;;
26181;SDS011;13927;51.534;11.866;2023-05-07T08:46:41;9.10;;;8.20;;
26181;SDS011;13927;51.534;11.866;2023-05-07T08:49:09;8.90;;;8.10;;
26181;SDS011;13927;51.534;11.866;2023-05-07T08:51:35;8.70;;;7.90;;
26181;SDS011;13927;51.534;11.866;2023-05-07T08:54:02;8.30;;;7.50;;
26181;SDS011;13927;51.534;11.866;2023-05-07T08:56:28;8.52;;;7.70;;
26181;SDS011;13927;51.534;11.866;2023-05-07T08:58:54;7.93;;;7.18;;
26181;SDS011;13927;51.534;11.866;2023-05-07T09:01:23;8.00;;;7.20;;
26181;SDS011;13927;51.534;11.866;2023-05-07T09:03:50;7.05;;;6.45;;
26181;SDS011;13927;51.534;11.866;2023-05-07T09:06:18;7.72;;;7.03;;
26181;SDS011;13927;51.534;11.866;2023-05-07T09:08:53;7.47;;;6.78;;
26181;SDS011;13927;51.534;11.866;2023-05-07T09:11:21;7.60;;;6.80;;
26181;SDS011;13927;51.534;11.866;2023-05-07T09:13:49;6.43;;;5.82;;
26181;SDS011;13927;51.534;11.866;2023-05-07T09:16:25;7.43;;;6.72;;
26181;SDS011;13927;51.534;11.866;2023-05-07T09:18:53;7.50;;;6.47;;
26181;SDS011;13927;51.534;11.866;2023-05-07T09:21:22;7.63;;;6.82;;
26181;SDS011;13927;51.534;11.866;2023-05-07T09:23:52;9.18;;;8.20;;
26181;SDS011;13927;51.534;11.866;2023-05-07T09:26:23;12.63;;;9.27;;
26181;SDS011;13927;51.534;11.866;2023-05-07T09:28:50;9.05;;;8.15;;
26181;SDS011;13927;51.534;11.866;2023-05-07T09:31:17;8.55;;;7.65;;
26181;SDS011;13927;51.534;11.866;2023-05-07T09:33:44;8.30;;;7.50;;
26181;SDS011;13927;51.534;11.866;2023-05-07T09:36:10;9.52;;;8.55;;
26181;SDS011;13927;51.534;11.866;2023-05-07T09:38:36;9.10;;;8.20;;
26181;SDS011;13927;51.534;11.866;2023-05-07T09:41:04;9.07;;;8.18;;
26181;SDS011;13927;51.534;11.866;2023-05-07T09:43:36;10.38;;;9.38;;
26181;SDS011;13927;51.534;11.866;2023-05-07T09:46:08;11.23;;;10.05;;
26181;SDS011;13927;51.534;11.866;2023-05-07T09:48:42;11.65;;;10.45;;
26181;SDS011;13927;51.534;11.866;2023-05-07T09:51:55;10.50;;;9.50;;
26181;SDS011;13927;51.534;11.866;2023-05-07T09:54:00;9.75;;;8.85;;
26181;SDS011;13927;51.534;11.866;2023-05-07T09:56:29;10.38;;;9.38;;
26181;SDS011;13927;51.534;11.866;2023-05-07T09:58:57;11.32;;;10.10;;
26181;SDS011;13927;51.534;11.866;2023-05-07T10:01:26;10.68;;;9.68;;
26181;SDS011;13927;51.534;11.866;2023-05-07T10:03:53;12.63;;;10.50;;
26181;SDS011;13927;51.534;11.866;2023-05-07T10:06:20;13.75;;;12.43;;
26181;SDS011;13927;51.534;11.866;2023-05-07T10:08:47;11.85;;;10.32;;
26181;SDS011;13927;51.534;11.866;2023-05-07T10:11:14;11.20;;;9.55;;
26181;SDS011;13927;51.534;11.866;2023-05-07T10:13:42;12.45;;;11.20;;
26181;SDS011;13927;51.534;11.866;2023-05-07T10:16:10;11.43;;;10.23;;
26181;SDS011;13927;51.534;11.866;2023-05-07T10:18:37;10.95;;;9.85;;
26181;SDS011;13927;51.534;11.866;2023-05-07T10:21:16;12.55;;;11.32;;
26181;SDS011;13927;51.534;11.866;2023-05-07T10:23:49;11.82;;;10.35;;
26181;SDS011;13927;51.534;11.866;2023-05-07T10:26:25;13.10;;;11.27;;
26181;SDS011;13927;51.534;11.866;2023-05-07T10:28:58;12.93;;;11.45;;
26181;SDS011;13927;51.534;11.866;2023-05-07T10:34:18;12.68;;;11.38;;
26181;SDS011;13927;51.534;11.866;2023-05-07T10:36:55;11.52;;;10.43;;
26181;SDS011;13927;51.534;11.866;2023-05-07T10:39:22;12.07;;;10.60;;
26181;SDS011;13927;51.534;11.866;2023-05-07T10:41:49;12.43;;;10.77;;
26181;SDS011;13927;51.534;11.866;2023-05-07T10:44:28;12.43;;;11.15;;
26181;SDS011;13927;51.534;11.866;2023-05-07T10:47:16;11.68;;;10.18;;
26181;SDS011;13927;51.534;11.866;2023-05-07T10:52:11;12.60;;;11.27;;
26181;SDS011;13927;51.534;11.866;2023-05-07T10:55:18;14.88;;;13.20;;
26181;SDS011;13927;51.534;11.866;2023-05-07T10:57:47;12.93;;;11.52;;
26181;SDS011;13927;51.534;11.866;2023-05-07T11:00:57;13.60;;;11.75;;
26181;SDS011;13927;51.534;11.866;2023-05-07T11:03:06;17.88;;;12.40;;
26181;SDS011;13927;51.534;11.866;2023-05-07T11:05:32;13.32;;;11.90;;
26181;SDS011;13927;51.534;11.866;2023-05-07T11:08:02;14.10;;;12.70;;
26181;SDS011;13927;51.534;11.866;2023-05-07T11:10:48;13.90;;;12.50;;
26181;SDS011;13927;51.534;11.866;2023-05-07T11:16:20;14.07;;;12.65;;
26181;SDS011;13927;51.534;11.866;2023-05-07T11:18:54;14.13;;;12.52;;
26181;SDS011;13927;51.534;11.866;2023-05-07T11:21:54;15.02;;;13.23;;
26181;SDS011;13927;51.534;11.866;2023-05-07T11:24:13;14.05;;;12.65;;
26181;SDS011;13927;51.534;11.866;2023-05-07T11:29:13;14.02;;;12.60;;
26181;SDS011;13927;51.534;11.866;2023-05-07T11:31:50;11.65;;;10.52;;
26181;SDS011;13927;51.534;11.866;2023-05-07T11:34:21;12.18;;;10.10;;
26181;SDS011;13927;51.534;11.866;2023-05-07T11:36:49;10.18;;;9.18;;
26181;SDS011;13927;51.534;11.866;2023-05-07T11:39:26;10.15;;;9.15;;
26181;SDS011;13927;51.534;11.866;2023-05-07T11:41:57;11.52;;;10.30;;
26181;SDS011;13927;51.534;11.866;2023-05-07T11:44:23;11.75;;;10.65;;
26181;SDS011;13927;51.534;11.866;2023-05-07T11:46:49;11.68;;;10.57;;
26181;SDS011;13927;51.534;11.866;2023-05-07T11:49:15;13.60;;;11.88;;
26181;SDS011;13927;51.534;11.866;2023-05-07T11:51:42;12.90;;;11.68;;
26181;SDS011;13927;51.534;11.866;2023-05-07T11:54:08;12.00;;;10.90;;
26181;SDS011;13927;51.534;11.866;2023-05-07T11:56:36;12.30;;;11.13;;
26181;SDS011;13927;51.534;11.866;2023-05-07T11:59:02;11.00;;;9.93;;
26181;SDS011;13927;51.534;11.866;2023-05-07T12:01:28;10.07;;;9.18;;
26181;SDS011;13927;51.534;11.866;2023-05-07T12:03:53;11.00;;;9.90;;
26181;SDS011;13927;51.534;11.866;2023-05-07T12:06:19;11.30;;;10.13;;
26181;SDS011;13927;51.534;11.866;2023-05-07T12:08:48;11.77;;;10.70;;
26181;SDS011;13927;51.534;11.866;2023-05-07T12:11:15;11.93;;;10.90;;
26181;SDS011;13927;51.534;11.866;2023-05-07T12:13:46;11.68;;;10.60;;
26181;SDS011;13927;51.534;11.866;2023-05-07T12:16:12;10.70;;;9.70;;
26181;SDS011;13927;51.534;11.866;2023-05-07T12:18:39;10.43;;;9.32;;
26181;SDS011;13927;51.534;11.866;2023-05-07T12:21:05;10.32;;;9.32;;
26181;SDS011;13927;51.534;11.866;2023-05-07T12:23:36;10.43;;;9.43;;
26181;SDS011;13927;51.534;11.866;2023-05-07T12:26:03;10.55;;;9.35;;
26181;SDS011;13927;51.534;11.866;2023-05-07T12:28:29;9.30;;;8.23;;
26181;SDS011;13927;51.534;11.866;2023-05-07T12:30:56;6.78;;;6.18;;
26181;SDS011;13927;51.534;11.866;2023-05-07T12:33:26;6.80;;;6.10;;
26181;SDS011;13927;51.534;11.866;2023-05-07T12:35:54;7.38;;;6.65;;
26181;SDS011;13927;51.534;11.866;2023-05-07T12:38:21;7.22;;;6.22;;
26181;SDS011;13927;51.534;11.866;2023-05-07T12:40:49;7.30;;;6.60;;
26181;SDS011;13927;51.534;11.866;2023-05-07T12:43:27;7.22;;;6.40;;
26181;SDS011;13927;51.534;11.866;2023-05-07T12:45:54;7.80;;;6.63;;
26181;SDS011;13927;51.534;11.866;2023-05-07T12:48:23;9.00;;;6.90;;
26181;SDS011;13927;51.534;11.866;2023-05-07T12:50:55;8.15;;;7.38;;
26181;SDS011;13927;51.534;11.866;2023-05-07T12:53:23;8.88;;;7.97;;
26181;SDS011;13927;51.534;11.866;2023-05-07T12:55:52;9.48;;;8.40;;
26181;SDS011;13927;51.534;11.866;2023-05-07T12:58:30;9.13;;;8.23;;
26181;SDS011;13927;51.534;11.866;2023-05-07T13:01:05;9.75;;;8.00;;
26181;SDS011;13927;51.534;11.866;2023-05-07T13:03:35;9.15;;;8.10;;
26181;SDS011;13927;51.534;11.866;2023-05-07T13:06:03;10.35;;;7.88;;
26181;SDS011;13927;51.534;11.866;2023-05-07T13:08:38;10.40;;;8.40;;
26181;SDS011;13927;51.534;11.866;2023-05-07T13:11:19;9.40;;;8.48;;
26181;SDS011;13927;51.534;11.866;2023-05-07T13:13:45;9.77;;;8.68;;
26181;SDS011;13927;51.534;11.866;2023-05-07T13:16:23;9.93;;;8.93;;
26181;SDS011;13927;51.534;11.866;2023-05-07T13:18:49;10.45;;;9.23;;
26181;SDS011;13927;51.534;11.866;2023-05-07T13:21:15;9.45;;;8.45;;
26181;SDS011;13927;51.534;11.866;2023-05-07T13:23:40;9.82;;;8.90;;
26181;SDS011;13927;51.534;11.866;2023-05-07T13:26:06;10.77;;;9.57;;
26181;SDS011;13927;51.534;11.866;2023-05-07T13:28:32;9.30;;;8.43;;
26181;SDS011;13927;51.534;11.866;2023-05-07T13:31:00;8.23;;;7.43;;
26181;SDS011;13927;51.534;11.866;2023-05-07T13:33:26;8.40;;;7.57;;
26181;SDS011;13927;51.534;11.866;2023-05-07T13:35:52;8.98;;;8.07;;
26181;SDS011;13927;51.534;11.866;2023-05-07T13:38:18;7.45;;;6.50;;
26181;SDS011;13927;51.534;11.866;2023-05-07T13:40:43;8.13;;;7.00;;
26181;SDS011;13927;51.534;11.866;2023-05-07T13:43:09;7.28;;;6.55;;
26181;SDS011;13927;51.534;11.866;2023-05-07T13:45:44;7.28;;;6.57;;
26181;SDS011;13927;51.534;11.866;2023-05-07T13:48:10;7.32;;;6.60;;
26181;SDS011;13927;51.534;11.866;2023-05-07T13:50:36;6.57;;;5.80;;
26181;SDS011;13927;51.534;11.866;2023-05-07T13:53:01;8.07;;;6.63;;
26181;SDS011;13927;51.534;11.866;2023-05-07T13:55:28;6.78;;;6.07;;
26181;SDS011;13927;51.534;11.866;2023-05-07T13:57:58;6.22;;;5.50;;
26181;SDS011;13927;51.534;11.866;2023-05-07T14:00:26;5.95;;;5.35;;
26181;SDS011;13927;51.534;11.866;2023-05-07T14:02:54;6.53;;;5.70;;
26181;SDS011;13927;51.534;11.866;2023-05-07T14:05:21;5.65;;;5.15;;
26181;SDS011;13927;51.534;11.866;2023-05-07T14:08:07;5.72;;;5.13;;
26181;SDS011;13927;51.534;11.866;2023-05-07T14:10:33;4.90;;;4.47;;
26181;SDS011;13927;51.534;11.866;2023-05-07T14:13:00;6.07;;;4.47;;
26181;SDS011;13927;51.534;11.866;2023-05-07T14:15:25;7.03;;;5.07;;
26181;SDS011;13927;51.534;11.866;2023-05-07T14:17:53;5.82;;;4.90;;
26181;SDS011;13927;51.534;11.866;2023-05-07T14:20:19;5.30;;;4.30;;
26181;SDS011;13927;51.534;11.866;2023-05-07T14:22:46;8.85;;;4.78;;
26181;SDS011;13927;51.534;11.866;2023-05-07T14:25:11;6.70;;;5.38;;
26181;SDS011;13927;51.534;11.866;2023-05-07T14:27:37;6.47;;;5.43;;